Stunt Ranch Reserve, Santa Monica Mtns, California Weather observations

Data are for 10 minute period ending at time listed.
 Day   Time   Solar   Ave.   Ave.  Ave.  Vector  Max.   Baro.   Total    
  of    of     Rad.   Air    Rel.  Wind   Wind   Wind  Press.  Precip.   
Year   Day            Temp.  Hum.  Speed  Dir.   Gust                    
2015   (PST)  Kw/m2    F      %     mph   deg.    mph    mb.     in.     
-------------------------------------------------------------------------
 179   15:10   0.68  103.0    18    3.9   287    10.7   966.1    0.00 
 179   15:20   0.70  102.9    17    5.0   282    10.1   965.8    0.00 
 179   15:30   0.66  102.5    17    3.7   292    10.0   965.8    0.00 
 179   15:40   0.58  102.6    16    4.7   286    10.4   965.8    0.00 
 179   15:50   0.40  101.6    17    5.4   279    14.5   965.8    0.00 
 179   16:00   0.36   99.5    18    5.0   285    10.2   965.8    0.00 
 179   16:10   0.33   99.3    17    4.0   292    10.6   965.8    0.00 
 179   16:20   0.30   98.5    17    6.0   280    13.6   965.8    0.00 
 179   16:30   0.27   98.1    18    5.6   282    11.2   965.8    0.00 
 179   16:40   0.17   97.3    18    3.5   281    10.9   965.8    0.00 
 179   16:50   0.17   95.8    18    2.6   316     9.2   965.8    0.00 
 179   17:00   0.29   94.5    18    5.5   320    12.6   965.8    0.00 
 179   17:10   0.28   94.9    18    3.3   312     9.3   965.8    0.00 
 179   17:20   0.25   93.9    19    2.4   299     7.6   965.8    0.00 
 179   17:30   0.25   93.6    20    2.5   306     7.2   965.8    0.00 
 179   17:40   0.22   92.3    21    2.5   292     8.6   966.1    0.00 
 179   17:50   0.16   90.9    22    3.1   284    10.3   966.1    0.00 
 179   18:00   0.10   88.4    25    2.4   293     7.2   966.1    0.00 
 179   18:10   0.07   86.3    27    2.3   284     6.4   966.1    0.00 
 179   18:20   0.07   85.1    29    1.6   291     5.5   966.1    0.00 
 179   18:30   0.06   84.3    31    0.8   298     3.4   966.1    0.00 
 179   18:40   0.04   83.6    33    1.0   273     2.9   966.1    0.00 
 179   18:50   0.02   82.4    34    1.2   286     3.8   965.8    0.00 
 179   19:00   0.01   81.6    36    0.4   295     1.8   965.8    0.00 
 179   19:10   0.02   80.8    36    1.5   279     4.7   965.8    0.00 
 179   19:20   0.02   80.5    37    1.0   282     3.4   965.8    0.00 
 179   19:30   0.00   80.1    37    1.6   265     5.5   965.8    0.00 
 179   19:40   0.00   79.9    37    3.6   250     8.0   965.8    0.00 
 179   19:50   0.00   79.9    36    4.2   258     8.3   965.8    0.00 
 179   20:00   0.00   80.0    36    3.6   248     8.0   965.8    0.00 
 179   20:10   0.00   80.3    35    2.9   253     8.4   965.8    0.00 
 179   20:20   0.00   79.8    36    1.2   154     2.7   965.8    0.00 
 179   20:30   0.00   79.5    36    1.6   131     2.9   965.8    0.00 
 179   20:40   0.00   79.6    36    1.2   109     2.0   965.8    0.00 
 179   20:50   0.00   79.5    36    1.8   112     3.0   966.1    0.00 
 179   21:00   0.00   79.3    37    1.9   117     3.9   966.1    0.00 
 179   21:10   0.00   78.9    37    2.4   119     3.9   966.1    0.00 
 179   21:20   0.00   79.0    37    1.8   155     2.9   966.1    0.00 
 179   21:30   0.00   79.2    36    1.4   222     4.0   966.1    0.00 
 179   21:40   0.00   79.6    35    1.8   188     7.2   966.5    0.00 
 179   21:50   0.00   79.9    33    2.9   250     5.5   966.1    0.00 
 179   22:00   0.00   80.3    31    0.9   204     3.0   966.1    0.00 
 179   22:10   0.00   80.2    32    1.2   188     3.6   966.5    0.00 
 179   22:20   0.00   80.2    31    3.3   182     6.1   966.5    0.00 
 179   22:30   0.00   80.7    30    3.6   237     7.0   966.1    0.00 
 179   22:40   0.00   81.1    29    2.6   229     5.5   966.1    0.00 
 179   22:50   0.00   80.5    30    2.1   254     4.8   966.1    0.00 
 179   23:00   0.00   79.6    31    2.2   189     5.6   966.1    0.00 
 179   23:10   0.00   80.4    29    2.8   260     8.3   966.5    0.00 
 179   23:20   0.00   79.8    31    1.1   248     3.1   966.1    0.00 
 179   23:30   0.00   80.1    30    1.7   225     4.5   966.1    0.00 
 179   23:40   0.00   80.2    30    0.2   308     1.2   966.1    0.00 
 179   23:50   0.00   80.1    30    1.4   149     2.7   965.8    0.00 
 180    0:00   0.00   79.8    30    1.6   126     3.2   965.8    0.00 
 180    0:10   0.00   79.1    30    1.4   154     2.1   965.8    0.00 
 180    0:20   0.00   79.2    30    1.2   158     3.1   965.8    0.00 
 180    0:30   0.00   78.5    30    2.3   187     3.6   965.8    0.00 
 180    0:40   0.00   78.9    30    1.0   281     2.6   965.8    0.00 
 180    0:50   0.00   78.0    31    0.5    17     1.5   965.8    0.00 
 180    1:00   0.00   77.0    32    1.3   119     2.5   965.8    0.00 
 180    1:10   0.00   76.7    32    0.9   180     2.3   965.8    0.00 
 180    1:20   0.00   77.3    31    0.7   278     1.5   965.5    0.00 
 180    1:30   0.00   76.9    31    1.6   112     3.0   965.8    0.00 
 180    1:40   0.00   77.1    30    1.9   236     3.4   965.8    0.00 
 180    1:50   0.00   76.9    31    1.2   104     2.1   965.5    0.00 
 180    2:00   0.00   76.5    32    0.4   187     1.2   965.8    0.00 
 180    2:10   100.00  99999.0   99999  99999.0   99999   99999.0   99999.0   99999.00 
 180    2:20   100.00  99999.0   99999  99999.0   99999   99999.0   99999.0   99999.00 
 180    2:30   100.00  99999.0   99999  99999.0   99999   99999.0   99999.0   99999.00 
 180    2:40   100.00  99999.0   99999  99999.0   99999   99999.0   99999.0   99999.00 
 180    2:50   100.00  99999.0   99999  99999.0   99999   99999.0   99999.0   99999.00 
 180    3:00   100.00  99999.0   99999  99999.0   99999   99999.0   99999.0   99999.00 
 180    3:10   0.00   74.8    32    0.7    79     1.5   965.5    0.00 
 180    3:20   0.00   74.9    30    1.7   121     3.1   965.5    0.00 
 180    3:30   0.00   74.7    33    1.5   281     3.5   965.5    0.00 
 180    3:40   0.00   74.0    33    0.8   108     1.8   965.5    0.00 
 180    3:50   0.00   74.2    32    0.3   324     1.2   965.5    0.00 
 180    4:00   0.00   74.4    31    0.8   274     2.9   965.5    0.00 
 180    4:10   0.00   73.7    34    1.6   281     3.0   965.5    0.00 
 180    4:20   0.00   73.1    35    0.5   130     1.5   965.5    0.00 
 180    4:30   0.00   72.5    33    1.3   130     2.0   965.5    0.00 
 180    4:40   0.00   72.5    33    0.4   147     1.3   965.8    0.00 
 180    4:50   0.00   73.1    32    1.0    96     2.0   965.8    0.00 
 180    5:00   0.01   73.7    30    1.3   209     2.5   965.8    0.00 
 180    5:10   0.03   73.8    31    0.9   243     2.0   966.1    0.00 
 180    5:20   0.05   74.0    32    1.2   277     1.9   966.1    0.00 
 180    5:30   0.08   74.1    35    0.5   278     1.9   966.1    0.00 
 180    5:40   0.08   74.2    36    1.1   156     2.0   966.1    0.00 
 180    5:50   0.07   73.7    37    0.5   292     1.5   966.1    0.00 
 180    6:00   0.08   73.4    38    0.4   183     0.9   966.1    0.00 
 180    6:10   0.09   74.1    39    0.7   280     2.5   966.5    0.00 
 180    6:20   0.09   74.8    40    1.0   284     2.4   966.5    0.00 
 180    6:30   0.10   74.2    41    2.0   110     2.9   966.5    0.00 
 180    6:40   0.20   74.8    38    1.5   122     2.5   966.5    0.00 
 180    6:50   0.32   78.7    35    1.9   308     3.5   966.5    0.00 
 180    7:00   0.35   80.3    34    1.8   289     2.6   966.5    0.00 
 180    7:10   0.36   81.2    34    3.0   286     5.0   966.5    0.00 
 180    7:20   0.40   82.3    34    2.5   298     5.2   966.5    0.00 
 180    7:30   0.45   81.6    37    1.4   300     2.6   966.8    0.00 
 180    7:40   0.27   83.0    35    2.1   303     3.1   966.8    0.00 
 180    7:50   0.17   82.3    35    0.5   306     2.3   966.8    0.00 
 180    8:00   0.17   81.6    36    0.4    39     1.8   966.8    0.00 
 180    8:10   0.30   81.8    36    0.8   307     2.9   966.8    0.00 
 180    8:20   0.26   83.0    35    2.2   300     3.8   966.8    0.00 
 180    8:30   0.28   83.5    35    1.5   306     3.1   966.8    0.00 
 180    8:40   0.34   84.2    34    2.1   296     4.0   966.8    0.00 
 180    8:50   0.48   85.7    32    1.7   303     3.3   966.8    0.00 
 180    9:00   0.61   86.6    32    2.2   291     4.5   966.8    0.00 
 180    9:10   0.67   88.3    31    2.0   308     4.8   966.8    0.00 
 180    9:20   0.76   90.1    30    2.8   301     5.6   967.2    0.00 
 180    9:30   0.79   92.9    27    3.3   295     6.2   967.2    0.00 
 180    9:40   0.65   93.4    27    3.4   287     7.5   967.2    0.00 
 180    9:50   0.72   93.8    27    3.6   290     7.3   967.5    0.00 
 180   10:00   0.94   94.7    27    3.8   287     7.1   967.5    0.00 
 180   10:10   0.54   95.5    26    3.5   286     7.0   967.5    0.00 
 180   10:20   0.44   94.7    26    3.0   290     5.7   967.5    0.00 
 180   10:30   0.53   94.8    25    3.5   286     6.1   967.5    0.00 
 180   10:40   0.71   95.3    24    3.2   288     6.3   967.5    0.00 
 180   10:50   0.98   97.1    23    3.7   301     6.6   967.2    0.00 
 180   11:00   0.94   97.7    22    3.1   299     6.6   967.2    0.00 
 180   11:10   0.93  100.0    19    4.2   291     9.5   967.5    0.00 
 180   11:20   0.93   99.0    20    4.3   293     8.6   967.5    0.00 
 180   11:30   0.93   98.3    21    5.0   281     8.8   967.5    0.00 
 180   11:40   0.94   98.3    20    3.8   290     9.5   967.5    0.00 
 180   11:50   0.94   99.7    18    3.9   294     8.3   967.2    0.00 
 180   12:00   0.95   99.6    18    3.9   289     9.3   967.2    0.00 
 180   12:10   0.97  100.0    17    3.8   292     8.7   967.2    0.00 
 180   12:20   0.94   99.9    16    3.8   300    10.8   967.2    0.00 
 180   12:30   0.99   99.9    17    3.3   298     8.5   966.8    0.00 
 180   12:40   0.97  101.7    15    2.9   298     7.4   966.8    0.00 
 180   12:50   0.90  103.1    14    3.6   298     9.1   966.8    0.00 
 180   13:00   0.51  101.9    16    2.8   298     7.1   966.8    0.00 
 180   13:10   0.92  101.3    17    3.1   300     8.0   966.5    0.00 
 180   13:20   0.94  102.3    15    4.2   302     8.3   966.5    0.00 
 180   13:30   0.93  103.8    14    4.1   298    10.8   966.5    0.00 
 180   13:40   0.60  103.9    14    3.3   297     8.6   966.1    0.00 
 180   13:50   0.52  103.2    14    2.7   296     7.0   966.1    0.00 
 180   14:00   0.60  102.6    13    3.1   294     8.2   966.1    0.00 
 180   14:10   0.85  104.1    12    3.6   298     8.6   965.8    0.00 
 180   14:20   0.66  104.3    12    4.2   302    11.0   965.8    0.00 
 180   14:30   0.58  103.7    12    4.2   285    11.6   965.8    0.00 
 180   14:40   0.38  102.2    12    3.7   281    10.2   965.8    0.00 
 180   14:50   0.29  100.3    14    2.8   301     9.3   965.8    0.00 
 180   15:00   0.34   95.8    18    3.7    27     8.5   965.8    0.00 

Return to Stunt Ranch Reserve graphs page.


Western Regional Climate Center,wrcc@dri.edu